Mapleton, ND (58059)

1:11 AM CDT on September 19, 2014 (GMT -0500)
Westport Beach | Change Station
CLOSE
Current Station
Personal Weather Station
Location: West Fargo, ND
Elevation: 896 ft
Nearby Weather Stations

Elev 896 ft 46.82 °N, 96.92 °W | Updated 2 minutes ago

Mostly Cloudy
Mostly Cloudy
64.6 °F
Feels Like 64.6 °F
N
10.4
Wind Variable Wind from SSE

Today
High -- | Low -- °F
--% Chance of Precip.
Yesterday
High -- | Low -- °F
Precip. -- in
7:11 AM 7:31 PM
Waning Crescent, 21% visible
Pressure 29.76 in
Visibility 10.0 miles
Clouds Few 7000 ft
Scattered Clouds 9000 ft
Mostly Cloudy 11000 ft
Dew Point 57 °F
Humidity 76%
Rainfall 0.00 in
Snow Depth Not available.
UV 0 out of 12
Pollen 4.10 out of 12
Air Quality Not available.
Flu Activity Not available.
METAR KFAR 190553Z 17013G21KT 10SM FEW070 SCT090 BKN110 19/13 A2976 RMK AO2 SLP078 T01890128 10239 20189 402440056 55002

More Conditions Fewer Conditions

Pressure 29.76 in
Visibility 10.0 miles
Clouds Few 7000 ft
Scattered Clouds 9000 ft
Mostly Cloudy 11000 ft
Dew Point 57 °F
Humidity 76%
Rainfall 0.00 in
Snow Depth Not available.
UV 0 out of 12
Pollen 4.10 out of 12
Air Quality Not available.
Flu Activity Not available.
METAR KFAR 190553Z 17013G21KT 10SM FEW070 SCT090 BKN110 19/13 A2976 RMK AO2 SLP078 T01890128 10239 20189 402440056 55002

More Conditions Fewer Conditions

10-Day Weather Forecast

Almanac

Astronomy

Sep. 19, 2014 Rise Set
Actual Time 7:11 AM CDT 7:31 PM CDT
Civil Twilight 6:40 AM CDT 8:02 PM CDT
Nautical Twilight 6:04 AM CDT 8:38 PM CDT
Astronomical Twilight 5:27 AM CDT 9:15 PM CDT
Moon 2:44 AM CDT 5:12 PM CDT
Length of Visible Light 13h 21m
Length of Day
12h 20m
Tomorrow will be 3m 18s shorter.
Waning Crescent, 21% of the Moon is Illuminated
Today
Waning Crescent
Sep 24
New
Oct 1
First Quarter
Oct 8
Full
Oct 15
Last Quarter

Today's Extremes

State Highs State Lows

Community

WunderPhotos

Upload Photos

1,754,575 photos uploaded!

Nearby

Snow Depth

Station Depth Elevation
No new snow has been reported.

Earthquake Activity

City Distance Mag. Time & Date
No recent earthquake activity has been reported nearby.
Minimum magnitude displayed is 2.5.

Coastal Water Temperatures

Place Temperature
No Stations Reporting

Nearby Weather Stations